createdAt,value
2024-01-16T00:00:25.352Z,-0.95
2024-01-16T00:02:52.036Z,-0.98
2024-01-16T00:05:18.708Z,-0.97
2024-01-16T00:07:45.330Z,-0.98
2024-01-16T00:10:12.077Z,-1.01
2024-01-16T00:12:38.778Z,-1.02
2024-01-16T00:15:06.941Z,-0.94
2024-01-16T00:17:33.720Z,-0.96
2024-01-16T00:20:02.175Z,-0.85
2024-01-16T00:22:29.174Z,-1.00
2024-01-16T00:24:55.890Z,-0.88
2024-01-16T00:27:22.578Z,-0.98
2024-01-16T00:29:49.245Z,-0.89
2024-01-16T00:32:17.412Z,-0.89
2024-01-16T00:34:44.268Z,-1.02
2024-01-16T00:37:11.224Z,-0.73
2024-01-16T00:39:37.811Z,-0.96
2024-01-16T00:42:04.690Z,-0.72
2024-01-16T00:44:31.324Z,-0.67
2024-01-16T00:46:58.097Z,-0.77
2024-01-16T00:49:24.772Z,-0.73
2024-01-16T00:51:51.412Z,-0.63
2024-01-16T00:54:18.032Z,-0.65
2024-01-16T00:56:44.922Z,-0.72
2024-01-16T00:59:11.593Z,-0.88
2024-01-16T01:01:41.262Z,-0.64
2024-01-16T01:04:07.890Z,-0.71
2024-01-16T01:06:36.695Z,-0.63
2024-01-16T01:09:04.201Z,-0.63
2024-01-16T01:11:30.853Z,-0.72
2024-01-16T01:13:57.531Z,-0.60
2024-01-16T01:16:24.336Z,-0.67
2024-01-16T01:18:51.316Z,-0.48
2024-01-16T01:21:18.271Z,-0.61
2024-01-16T01:23:44.980Z,-0.50
2024-01-16T01:26:14.884Z,-0.57
2024-01-16T01:28:42.752Z,-0.96
2024-01-16T01:31:10.921Z,-0.70
2024-01-16T01:33:37.821Z,-0.74
2024-01-16T01:36:04.697Z,-0.92
2024-01-16T01:38:31.332Z,-0.88
2024-01-16T01:40:58.056Z,-0.90
2024-01-16T01:43:26.387Z,-0.95
2024-01-16T01:46:15.592Z,-0.96
2024-01-16T01:48:43.343Z,-1.06
2024-01-16T01:51:11.243Z,-1.04
2024-01-16T01:53:38.304Z,-1.16
2024-01-16T01:56:08.490Z,-1.17
2024-01-16T01:58:35.754Z,-1.03
2024-01-16T02:01:03.729Z,-1.10
2024-01-16T02:03:31.694Z,-0.94
2024-01-16T02:05:59.192Z,-0.86
2024-01-16T02:08:25.942Z,-0.84
2024-01-16T02:10:52.677Z,-0.86
2024-01-16T02:13:24.276Z,-0.90
2024-01-16T02:15:51.690Z,-0.90
2024-01-16T02:18:19.216Z,-0.99
2024-01-16T02:20:47.043Z,-1.05
2024-01-16T02:23:15.874Z,-0.91
2024-01-16T02:25:43.360Z,-1.01
2024-01-16T02:28:10.064Z,-1.11
2024-01-16T02:30:37.126Z,-1.38
2024-01-16T02:33:05.132Z,-1.13
2024-01-16T02:35:31.897Z,-1.16
2024-01-16T02:37:58.647Z,-1.22
2024-01-16T02:40:25.293Z,-1.40
2024-01-16T02:42:52.106Z,-1.45
2024-01-16T02:45:19.032Z,-1.39
2024-01-16T02:47:45.754Z,-1.42
2024-01-16T02:50:12.464Z,-1.39
2024-01-16T02:52:39.112Z,-1.44
2024-01-16T02:55:06.333Z,-1.35
2024-01-16T02:57:33.262Z,-1.39
2024-01-16T02:59:59.868Z,-1.44
2024-01-16T03:02:26.538Z,-1.45
2024-01-16T03:04:53.197Z,-1.50
2024-01-16T03:07:19.780Z,-1.57
2024-01-16T03:09:46.377Z,-1.44
2024-01-16T03:12:13.429Z,-1.69
2024-01-16T03:14:40.323Z,-1.54
2024-01-16T03:17:08.306Z,-1.55
2024-01-16T03:19:34.991Z,-1.70
2024-01-16T03:22:01.592Z,-1.58
2024-01-16T03:24:28.244Z,-1.60
2024-01-16T03:26:54.969Z,-1.67
2024-01-16T03:29:22.338Z,-1.71
2024-01-16T03:31:49.245Z,-1.67
2024-01-16T03:34:16.010Z,-1.82
2024-01-16T03:36:42.887Z,-1.68
2024-01-16T03:39:10.153Z,-1.77
2024-01-16T03:41:36.971Z,-1.86
2024-01-16T03:44:03.680Z,-1.91
2024-01-16T03:46:30.498Z,-1.85
2024-01-16T03:48:57.299Z,-1.87
2024-01-16T03:51:23.945Z,-1.75
2024-01-16T03:53:50.599Z,-1.88
2024-01-16T03:56:17.868Z,-1.84
2024-01-16T03:58:44.677Z,-1.84
2024-01-16T04:01:11.438Z,-1.78
2024-01-16T04:03:39.682Z,-1.76
2024-01-16T04:06:17.107Z,-1.83
2024-01-16T04:08:43.871Z,-1.85
2024-01-16T04:11:14.778Z,-1.87
2024-01-16T04:13:41.974Z,-1.80
2024-01-16T04:16:08.600Z,-1.74
2024-01-16T04:18:41.280Z,-1.82
2024-01-16T04:21:08.097Z,-1.66
2024-01-16T04:23:35.057Z,-1.72
2024-01-16T04:26:01.709Z,-1.65
2024-01-16T04:28:28.361Z,-1.61
2024-01-16T04:30:55.193Z,-1.66
2024-01-16T04:33:22.032Z,-1.81
2024-01-16T04:35:48.828Z,-1.59
2024-01-16T04:38:15.533Z,-1.64
2024-01-16T04:40:42.181Z,-1.66
2024-01-16T04:43:08.852Z,-1.58
2024-01-16T04:45:35.502Z,-1.68
2024-01-16T04:48:02.260Z,-1.68
2024-01-16T04:50:32.971Z,-1.73
2024-01-16T04:53:02.962Z,-1.60
2024-01-16T04:55:30.560Z,-1.56
2024-01-16T04:57:58.086Z,-1.63
2024-01-16T05:00:24.712Z,-1.64
2024-01-16T05:02:52.715Z,-1.59
2024-01-16T05:05:19.699Z,-1.81
2024-01-16T05:07:46.921Z,-1.73
2024-01-16T05:10:14.119Z,-1.84
2024-01-16T05:12:41.801Z,-1.73
2024-01-16T05:15:09.059Z,-1.89
2024-01-16T05:17:36.175Z,-1.85
2024-01-16T05:20:05.381Z,-1.80
2024-01-16T05:22:32.113Z,-1.91
2024-01-16T05:25:00.277Z,-2.17
2024-01-16T05:27:26.917Z,-2.05
2024-01-16T05:29:53.797Z,-2.00
2024-01-16T05:32:20.617Z,-2.00
2024-01-16T05:34:47.278Z,-1.94
2024-01-16T05:37:13.959Z,-2.06
2024-01-16T05:39:40.557Z,-2.06
2024-01-16T05:42:07.547Z,-2.12
2024-01-16T05:44:34.748Z,-2.05
2024-01-16T05:47:01.699Z,-2.12
2024-01-16T05:49:28.359Z,-2.03
2024-01-16T05:51:55.021Z,-2.08
2024-01-16T05:54:21.690Z,-2.08
2024-01-16T05:56:48.404Z,-2.11
2024-01-16T05:59:15.147Z,-2.02
2024-01-16T06:01:41.764Z,-2.08
2024-01-16T06:04:08.844Z,-2.08
2024-01-16T06:06:36.188Z,-2.02
2024-01-16T06:09:06.279Z,-1.98
2024-01-16T06:11:34.114Z,-2.05
2024-01-16T06:14:01.034Z,-2.05
2024-01-16T06:16:27.842Z,-1.92
2024-01-16T06:18:54.732Z,-1.97
2024-01-16T06:21:24.565Z,-1.90
2024-01-16T06:23:51.683Z,-1.82
2024-01-16T06:26:18.727Z,-1.95
2024-01-16T06:28:45.546Z,-1.91
2024-01-16T06:31:12.881Z,-1.84
2024-01-16T06:33:39.690Z,-1.94
2024-01-16T06:36:07.053Z,-1.74
2024-01-16T06:38:33.775Z,-1.92
2024-01-16T06:41:00.424Z,-1.81
2024-01-16T06:43:27.343Z,-1.76
2024-01-16T06:45:54.389Z,-1.66
2024-01-16T06:48:21.211Z,-1.65
2024-01-16T06:50:47.928Z,-1.56
2024-01-16T06:53:16.978Z,-1.55
2024-01-16T06:55:43.950Z,-1.58
2024-01-16T06:58:11.450Z,-1.44
2024-01-16T07:00:38.562Z,-1.46
2024-01-16T07:03:05.279Z,-1.46
2024-01-16T07:05:32.021Z,-1.49
2024-01-16T07:07:59.384Z,-1.61
2024-01-16T07:10:26.133Z,-1.64
2024-01-16T07:12:53.014Z,-1.61
2024-01-16T07:15:19.784Z,-1.86
2024-01-16T07:17:47.108Z,-1.83
2024-01-16T07:20:14.450Z,-1.83
2024-01-16T07:22:41.255Z,-1.91
2024-01-16T07:25:08.972Z,-1.96
2024-01-16T07:27:36.370Z,-1.93
2024-01-16T07:30:06.000Z,-1.78
2024-01-16T07:32:33.337Z,-1.57
2024-01-16T07:35:00.372Z,-1.61
2024-01-16T07:37:26.983Z,-1.67
2024-01-16T07:39:53.594Z,-1.58
2024-01-16T07:42:20.184Z,-1.64
2024-01-16T07:44:46.939Z,-1.56
2024-01-16T07:47:13.670Z,-1.62
2024-01-16T07:49:40.443Z,-1.55
2024-01-16T07:52:07.792Z,-1.76
2024-01-16T07:54:34.469Z,-1.68
2024-01-16T07:57:01.168Z,-1.61
2024-01-16T07:59:27.880Z,-1.48
2024-01-16T08:01:54.771Z,-1.44
2024-01-16T08:04:21.430Z,-1.18
2024-01-16T08:06:48.605Z,-1.03
2024-01-16T08:09:15.479Z,-1.31
2024-01-16T08:11:42.202Z,-1.42
2024-01-16T08:14:09.518Z,-1.60
2024-01-16T08:16:36.506Z,-1.36
2024-01-16T08:19:04.918Z,-1.35
2024-01-16T08:21:31.734Z,-1.34
2024-01-16T08:23:58.696Z,-1.41
2024-01-16T08:26:25.604Z,-1.19
2024-01-16T08:28:52.630Z,-1.20
2024-01-16T08:31:22.345Z,-1.26
2024-01-16T08:33:51.560Z,-1.05
2024-01-16T08:36:20.293Z,-1.12
2024-01-16T08:38:47.142Z,-1.01
2024-01-16T08:41:14.065Z,-1.07
2024-01-16T08:43:40.713Z,-0.99
2024-01-16T08:46:08.087Z,-1.08
2024-01-16T08:48:34.861Z,-1.20
2024-01-16T08:51:04.315Z,-1.32
2024-01-16T08:53:32.207Z,-1.18
2024-01-16T08:55:59.152Z,-1.21
2024-01-16T08:58:25.893Z,-1.18
2024-01-16T09:00:52.556Z,-1.20
2024-01-16T09:03:19.620Z,-1.04
2024-01-16T09:05:46.617Z,-0.96
2024-01-16T09:08:14.116Z,-1.00
2024-01-16T09:10:41.064Z,-0.88
2024-01-16T09:13:08.369Z,-0.90
2024-01-16T09:15:35.800Z,-0.77
2024-01-16T09:18:03.074Z,-0.72
2024-01-16T09:20:29.888Z,-1.09
2024-01-16T09:22:56.635Z,-0.92
2024-01-16T09:25:26.052Z,-1.03
2024-01-16T09:27:52.723Z,-1.20
2024-01-16T09:30:20.221Z,-1.17
2024-01-16T09:32:47.099Z,-1.16
2024-01-16T09:35:14.005Z,-1.08
2024-01-16T09:37:41.184Z,-1.11
2024-01-16T09:40:08.686Z,-1.07
2024-01-16T09:42:35.578Z,-0.99
2024-01-16T09:45:04.569Z,-0.74
2024-01-16T09:47:35.709Z,-0.67
2024-01-16T09:50:04.326Z,-0.56
2024-01-16T09:52:31.261Z,-0.47
2024-01-16T09:54:57.991Z,-0.36
2024-01-16T09:57:27.048Z,-0.43
2024-01-16T09:59:54.279Z,-0.32
2024-01-16T10:02:24.455Z,-0.17
2024-01-16T10:04:51.136Z,-0.39
2024-01-16T10:07:19.320Z,-0.56
2024-01-16T10:09:45.993Z,-0.61
2024-01-16T10:12:12.738Z,-0.54
2024-01-16T10:14:40.278Z,-0.46
2024-01-16T10:17:07.493Z,-0.47
2024-01-16T10:19:43.410Z,-0.41
2024-01-16T10:22:24.452Z,-0.41
2024-01-16T10:25:21.009Z,-0.32
2024-01-16T10:27:48.305Z,-0.35
2024-01-16T10:30:15.131Z,-0.47
2024-01-16T10:32:43.504Z,-0.68
2024-01-16T10:35:14.454Z,-0.84
2024-01-16T10:37:49.774Z,-0.94
2024-01-16T10:40:32.147Z,-1.04
2024-01-16T10:43:04.931Z,-1.08
2024-01-16T10:45:35.209Z,-1.10
2024-01-16T10:48:09.610Z,-1.17
2024-01-16T10:50:39.616Z,-0.94
2024-01-16T10:53:08.312Z,-1.17
2024-01-16T10:55:53.556Z,-0.95
2024-01-16T10:58:25.231Z,-1.05
2024-01-16T11:00:55.154Z,-0.81
2024-01-16T11:03:37.025Z,-0.80
2024-01-16T11:06:08.971Z,-0.64
2024-01-16T11:08:39.623Z,-0.43
2024-01-16T11:11:09.169Z,-0.29
2024-01-16T11:13:37.102Z,-0.21
2024-01-16T11:16:08.651Z,-0.20
2024-01-16T11:18:39.138Z,-0.24
2024-01-16T11:21:11.186Z,-0.14
2024-01-16T11:23:40.812Z,-0.02
2024-01-16T11:26:29.459Z,-0.16
2024-01-16T11:29:00.865Z,-0.06
2024-01-16T11:31:35.524Z,0.12
2024-01-16T11:34:06.391Z,0.06
2024-01-16T11:37:01.313Z,0.26
2024-01-16T11:39:28.116Z,0.18
2024-01-16T11:41:57.176Z,0.50
2024-01-16T11:44:43.781Z,0.59
2024-01-16T11:47:17.525Z,0.71
2024-01-16T11:49:44.430Z,0.67
2024-01-16T11:52:14.033Z,0.84
2024-01-16T11:54:42.845Z,0.88
2024-01-16T11:57:42.091Z,1.06
2024-01-16T12:00:20.893Z,1.08
2024-01-16T12:02:55.067Z,1.09
2024-01-16T12:05:22.701Z,0.93
2024-01-16T12:07:51.946Z,1.06
2024-01-16T12:10:20.130Z,1.19
2024-01-16T12:12:48.537Z,1.33
2024-01-16T12:15:20.045Z,1.29
2024-01-16T12:18:00.712Z,1.36
2024-01-16T12:20:29.701Z,1.27
2024-01-16T12:23:04.660Z,1.54
2024-01-16T12:26:00.352Z,1.41
2024-01-16T12:30:52.900Z,1.55
2024-01-16T12:33:23.568Z,1.39
2024-01-16T12:35:50.988Z,1.59
2024-01-16T12:38:18.340Z,1.64
2024-01-16T12:40:50.681Z,1.71
2024-01-16T12:43:19.588Z,1.75
2024-01-16T12:45:46.837Z,1.76
2024-01-16T12:48:14.324Z,1.67
2024-01-16T12:50:41.466Z,1.75
2024-01-16T12:53:12.654Z,1.78
2024-01-16T12:55:41.390Z,1.61
2024-01-16T12:58:23.316Z,1.75
2024-01-16T13:00:52.801Z,1.87
2024-01-16T13:03:31.336Z,1.85
2024-01-16T13:06:02.596Z,1.78
2024-01-16T13:08:30.072Z,1.83
2024-01-16T13:11:04.516Z,1.88
2024-01-16T13:13:31.353Z,1.83
2024-01-16T13:15:58.965Z,2.01
2024-01-16T13:18:27.720Z,1.98
2024-01-16T13:20:56.208Z,2.04
2024-01-16T13:23:23.560Z,2.13
2024-01-16T13:25:51.178Z,2.14
2024-01-16T13:28:19.109Z,2.18
2024-01-16T13:30:48.232Z,2.21
2024-01-16T13:33:15.722Z,2.21
2024-01-16T13:35:44.585Z,2.21
2024-01-16T13:38:12.805Z,2.27
2024-01-16T13:40:39.733Z,2.14
2024-01-16T13:43:07.663Z,2.23
2024-01-16T13:45:36.407Z,2.15
2024-01-16T13:48:03.628Z,2.27
2024-01-16T13:50:31.118Z,2.25
2024-01-16T13:52:57.869Z,2.17
2024-01-16T13:55:24.692Z,2.23
2024-01-16T13:57:53.095Z,2.11
2024-01-16T14:00:19.891Z,2.09
2024-01-16T14:02:48.522Z,2.11
2024-01-16T14:05:17.008Z,2.18
2024-01-16T14:07:44.220Z,2.18
2024-01-16T14:10:13.170Z,2.21
2024-01-16T14:12:40.752Z,2.23
2024-01-16T14:15:16.984Z,2.22
2024-01-16T14:17:45.023Z,2.16
2024-01-16T14:20:12.764Z,2.19
2024-01-16T14:22:40.977Z,2.16
2024-01-16T14:25:13.372Z,2.12
2024-01-16T14:27:41.242Z,2.11
2024-01-16T14:30:11.803Z,1.90
2024-01-16T14:32:41.698Z,1.95
2024-01-16T14:35:10.704Z,1.90
2024-01-16T14:37:38.481Z,1.85
2024-01-16T14:40:29.189Z,1.85
2024-01-16T14:43:00.234Z,1.68
2024-01-16T14:45:32.342Z,1.70
2024-01-16T14:47:59.481Z,1.60
2024-01-16T14:50:26.324Z,1.58
2024-01-16T14:52:53.702Z,1.55
2024-01-16T14:55:23.769Z,1.36
2024-01-16T14:57:54.322Z,1.46
2024-01-16T15:00:21.291Z,1.56
2024-01-16T15:02:49.146Z,1.50
2024-01-16T15:05:23.065Z,1.61
2024-01-16T15:07:53.112Z,1.67
2024-01-16T15:10:19.904Z,1.62
2024-01-16T15:12:48.096Z,1.63
2024-01-16T15:15:16.587Z,1.61
2024-01-16T15:17:44.832Z,1.65
2024-01-16T15:20:12.235Z,1.61
2024-01-16T15:22:46.677Z,1.59
2024-01-16T15:25:17.913Z,1.51
2024-01-16T15:27:46.312Z,1.57
2024-01-16T15:30:15.078Z,1.60
2024-01-16T15:32:42.378Z,1.61
2024-01-16T15:35:09.322Z,1.64
2024-01-16T15:37:36.218Z,1.57
2024-01-16T15:40:06.501Z,1.57
2024-01-16T15:42:34.231Z,1.48
2024-01-16T15:45:00.926Z,1.44
2024-01-16T15:47:27.743Z,1.38
2024-01-16T15:49:55.604Z,1.40
2024-01-16T15:52:22.271Z,1.43
2024-01-16T15:54:48.833Z,1.41
2024-01-16T15:57:15.895Z,1.36
2024-01-16T15:59:42.842Z,1.42
2024-01-16T16:02:09.795Z,1.21
2024-01-16T16:04:37.083Z,1.32
2024-01-16T16:07:04.513Z,1.40
2024-01-16T16:09:31.247Z,1.39
2024-01-16T16:11:58.047Z,1.33
2024-01-16T16:14:24.866Z,1.45
2024-01-16T16:16:51.977Z,1.44
2024-01-16T16:19:19.102Z,1.47
2024-01-16T16:21:46.703Z,1.30
2024-01-16T16:24:13.319Z,1.49
2024-01-16T16:26:43.106Z,1.55
2024-01-16T16:29:12.000Z,1.56
2024-01-16T16:31:39.310Z,1.61
2024-01-16T16:34:08.964Z,1.52
2024-01-16T16:36:35.722Z,1.50
2024-01-16T16:39:02.308Z,1.37
2024-01-16T16:41:29.564Z,1.38
2024-01-16T16:43:56.339Z,1.38
2024-01-16T16:46:23.769Z,1.45
2024-01-16T16:48:51.023Z,1.41
2024-01-16T16:51:19.712Z,1.44
2024-01-16T16:53:47.120Z,1.40
2024-01-16T16:56:15.388Z,1.53
2024-01-16T16:58:46.733Z,1.42
2024-01-16T17:01:16.252Z,1.28
2024-01-16T17:03:45.047Z,1.38
2024-01-16T17:06:12.087Z,1.38
2024-01-16T17:08:40.622Z,1.23
2024-01-16T17:11:11.326Z,1.19
2024-01-16T17:13:41.521Z,1.09
2024-01-16T17:16:11.660Z,0.91
2024-01-16T17:18:39.588Z,0.90
2024-01-16T17:21:07.745Z,0.82
2024-01-16T17:23:35.693Z,0.83
2024-01-16T17:26:03.233Z,0.75
2024-01-16T17:28:30.325Z,0.66
2024-01-16T17:30:59.588Z,0.73
2024-01-16T17:33:27.227Z,0.66
2024-01-16T17:35:56.129Z,0.68
2024-01-16T17:38:22.820Z,0.83
2024-01-16T17:40:50.813Z,0.83
2024-01-16T17:43:17.666Z,0.83
2024-01-16T17:45:45.212Z,0.87
2024-01-16T17:48:12.051Z,0.90
2024-01-16T17:50:39.112Z,1.14
2024-01-16T17:53:08.900Z,0.95
2024-01-16T17:55:35.804Z,1.16
2024-01-16T17:58:02.550Z,1.17
2024-01-16T18:00:30.632Z,0.95
2024-01-16T18:02:59.007Z,0.86
2024-01-16T18:05:30.801Z,0.82
2024-01-16T18:07:57.981Z,0.73
2024-01-16T18:10:25.260Z,0.69
2024-01-16T18:12:52.028Z,0.62
2024-01-16T18:15:19.150Z,0.46
2024-01-16T18:17:47.266Z,0.54
2024-01-16T18:20:17.801Z,0.60
2024-01-16T18:22:46.022Z,0.59
2024-01-16T18:25:15.163Z,0.37
2024-01-16T18:27:45.647Z,0.23
2024-01-16T18:30:16.833Z,0.18
2024-01-16T18:32:44.428Z,0.40
2024-01-16T18:35:13.317Z,0.02
2024-01-16T18:37:43.889Z,0.10
2024-01-16T18:40:11.645Z,0.07
2024-01-16T18:42:41.608Z,0.15
2024-01-16T18:45:16.890Z,0.00
2024-01-16T18:47:46.156Z,0.04
2024-01-16T18:50:13.951Z,0.00
2024-01-16T18:52:42.796Z,0.03
2024-01-16T18:55:12.468Z,0.16
2024-01-16T18:57:43.244Z,0.02
2024-01-16T19:00:19.333Z,0.23
2024-01-16T19:02:49.440Z,0.11
2024-01-16T19:05:17.152Z,0.10
2024-01-16T19:07:45.678Z,0.05
2024-01-16T19:10:14.358Z,0.02
2024-01-16T19:12:47.544Z,-0.05
2024-01-16T19:15:20.825Z,-0.10
2024-01-16T19:17:49.121Z,-0.10
2024-01-16T19:20:16.239Z,-0.33
2024-01-16T19:22:44.750Z,-0.19
2024-01-16T19:25:29.409Z,-0.15
2024-01-16T19:27:56.336Z,-0.11
2024-01-16T19:30:24.049Z,-0.33
2024-01-16T19:32:51.200Z,-0.17
2024-01-16T19:35:18.510Z,-0.29
2024-01-16T19:37:45.812Z,-0.26
2024-01-16T19:40:14.451Z,-0.14
2024-01-16T19:42:42.118Z,-0.21
2024-01-16T19:45:10.621Z,-0.25
2024-01-16T19:47:43.329Z,-0.31
2024-01-16T19:50:21.377Z,-0.27
2024-01-16T19:52:55.741Z,-0.42
2024-01-16T19:55:25.451Z,-0.48
2024-01-16T19:57:53.516Z,-0.53
2024-01-16T20:00:20.920Z,-0.27
2024-01-16T20:02:48.386Z,-0.51
2024-01-16T20:05:17.129Z,-0.42
2024-01-16T20:07:45.011Z,-0.31
2024-01-16T20:10:15.592Z,-0.26
2024-01-16T20:12:43.171Z,-0.33
2024-01-16T20:15:14.990Z,-0.28
2024-01-16T20:17:42.508Z,-0.56
2024-01-16T20:20:10.918Z,-0.35
2024-01-16T20:22:41.159Z,-0.18
2024-01-16T20:25:07.919Z,-0.29
2024-01-16T20:27:35.417Z,-0.27
2024-01-16T20:30:06.382Z,-0.33
2024-01-16T20:32:33.586Z,-0.24
2024-01-16T20:35:00.431Z,-0.25
2024-01-16T20:37:27.860Z,-0.52
2024-01-16T20:39:54.479Z,-0.55
2024-01-16T20:42:21.072Z,-0.28
2024-01-16T20:44:47.921Z,-0.40
2024-01-16T20:47:14.829Z,-0.44
2024-01-16T20:49:41.690Z,-0.69
2024-01-16T20:52:08.571Z,-0.65
2024-01-16T20:54:39.352Z,-0.60
2024-01-16T20:57:06.997Z,-0.69
2024-01-16T20:59:33.877Z,-0.73
2024-01-16T21:02:01.044Z,-0.80
2024-01-16T21:04:27.895Z,-0.73
2024-01-16T21:06:59.632Z,-0.78
2024-01-16T21:09:27.549Z,-0.61
2024-01-16T21:11:58.555Z,-0.59
2024-01-16T21:14:25.928Z,-0.64
2024-01-16T21:16:53.318Z,-0.42
2024-01-16T21:19:22.216Z,-0.58
2024-01-16T21:21:52.468Z,-0.60
2024-01-16T21:24:20.062Z,-0.66
2024-01-16T21:26:48.084Z,-0.81
2024-01-16T21:29:15.241Z,-0.75
2024-01-16T21:31:49.986Z,-0.87
2024-01-16T21:34:18.414Z,-0.91
2024-01-16T21:36:48.454Z,-0.87
2024-01-16T21:39:16.549Z,-0.85
2024-01-16T21:41:44.319Z,-1.21
2024-01-16T21:44:12.101Z,-1.18
2024-01-16T21:46:40.332Z,-1.08
2024-01-16T21:49:07.168Z,-1.20
2024-01-16T21:51:33.993Z,-1.16
2024-01-16T21:54:02.527Z,-1.05
2024-01-16T21:56:29.484Z,-1.03
2024-01-16T21:58:57.618Z,-1.12
2024-01-16T22:01:24.213Z,-1.18
2024-01-16T22:03:51.345Z,-1.33
2024-01-16T22:06:18.144Z,-1.26
2024-01-16T22:08:52.768Z,-1.38
2024-01-16T22:11:20.239Z,-1.32
2024-01-16T22:13:47.086Z,-1.25
2024-01-16T22:16:14.102Z,-1.27
2024-01-16T22:18:43.132Z,-1.28
2024-01-16T22:21:11.474Z,-1.32
2024-01-16T22:23:38.165Z,-1.38
2024-01-16T22:26:04.954Z,-1.31
2024-01-16T22:28:31.651Z,-1.36
2024-01-16T22:30:58.423Z,-1.41
2024-01-16T22:33:25.258Z,-1.39
2024-01-16T22:35:52.081Z,-1.50
2024-01-16T22:38:19.542Z,-1.49
2024-01-16T22:40:46.684Z,-1.37
2024-01-16T22:43:13.344Z,-1.58
2024-01-16T22:45:40.711Z,-1.44
2024-01-16T22:48:12.469Z,-1.48
2024-01-16T22:50:43.805Z,-1.60
2024-01-16T22:53:11.313Z,-1.63
2024-01-16T22:55:38.123Z,-1.63
2024-01-16T22:58:04.833Z,-1.57
2024-01-16T23:00:31.795Z,-1.75
2024-01-16T23:02:58.912Z,-1.50
2024-01-16T23:05:28.440Z,-1.61
2024-01-16T23:07:56.488Z,-1.72
2024-01-16T23:10:23.415Z,-1.61
2024-01-16T23:12:50.129Z,-1.61
2024-01-16T23:15:16.993Z,-1.69
2024-01-16T23:17:44.462Z,-1.73
2024-01-16T23:20:16.127Z,-1.81
2024-01-16T23:22:46.484Z,-1.76
2024-01-16T23:25:14.340Z,-1.68
2024-01-16T23:27:42.723Z,-1.80
2024-01-16T23:30:11.716Z,-1.74
2024-01-16T23:32:39.199Z,-1.81
2024-01-16T23:35:08.813Z,-1.77
2024-01-16T23:37:37.289Z,-1.80
2024-01-16T23:40:10.470Z,-2.02
2024-01-16T23:42:39.529Z,-1.76
2024-01-16T23:45:14.426Z,-1.92
2024-01-16T23:47:50.421Z,-1.94
2024-01-16T23:50:18.253Z,-1.89
2024-01-16T23:52:45.793Z,-1.85
2024-01-16T23:55:16.003Z,-1.86
2024-01-16T23:57:42.774Z,-2.00
